Time,TemperatureF,DewpointF,PressureIn,WindDirection,WindDirectionDegrees,WindSpeedMPH,WindSpeedGustMPH,Humidity,HourlyPrecipIn,Conditions,Clouds,dailyrainin,SolarRadiationWatts/m^2,SoftwareType,DateUTC
2013-02-02 00:00:00,47.7,24.0,30.25,NNE,19,2.0,2.0,39,0.00,,,0.00,0,weatherlink.com 1.10,2013-02-02 05:00:00,
2013-02-02 00:15:00,47.1,24.0,30.25,NNE,13,0.0,4.0,40,0.00,,,0.00,0,weatherlink.com 1.10,2013-02-02 05:15:00,
2013-02-02 00:30:00,46.7,25.0,30.25,North,11,0.0,1.0,42,0.00,,,0.00,0,weatherlink.com 1.10,2013-02-02 05:30:00,
2013-02-02 00:45:00,46.1,25.0,30.25,North,11,0.0,1.0,43,0.00,,,0.00,0,weatherlink.com 1.10,2013-02-02 05:45:00,
2013-02-02 01:00:00,45.5,25.0,30.25,North,350,0.0,1.0,44,0.00,,,0.00,0,weatherlink.com 1.10,2013-02-02 06:00:00,
2013-02-02 01:17:00,45.4,24.0,30.25,NW,326,0.0,8.0,44,0.00,,,0.00,0,weatherlink.com 1.10,2013-02-02 06:17:00,
2013-02-02 01:31:00,45.2,25.0,30.26,NNW,346,0.0,1.0,45,0.00,,,0.00,0,weatherlink.com 1.10,2013-02-02 06:31:00,
2013-02-02 01:46:00,45.1,24.0,30.26,NNW,346,0.0,1.0,44,0.00,,,0.00,0,weatherlink.com 1.10,2013-02-02 06:46:00,
2013-02-02 02:02:00,44.8,24.0,30.26,NNW,346,0.0,1.0,44,0.00,,,0.00,0,weatherlink.com 1.10,2013-02-02 07:02:00,
2013-02-02 02:16:00,44.3,24.0,30.25,NNW,346,0.0,0.0,45,0.00,,,0.00,0,weatherlink.com 1.10,2013-02-02 07:16:00,
2013-02-02 02:31:00,43.8,24.0,30.24,NNW,346,0.0,1.0,46,0.00,,,0.00,0,weatherlink.com 1.10,2013-02-02 07:31:00,
2013-02-02 02:46:00,43.2,24.0,30.24,NNW,346,0.0,0.0,47,0.00,,,0.00,0,weatherlink.com 1.10,2013-02-02 07:46:00,
2013-02-02 03:02:00,42.5,25.0,30.24,NNW,346,0.0,0.0,50,0.00,,,0.00,0,weatherlink.com 1.10,2013-02-02 08:02:00,
2013-02-02 03:16:00,41.5,25.0,30.24,NNW,346,0.0,0.0,52,0.00,,,0.00,0,weatherlink.com 1.10,2013-02-02 08:16:00,
2013-02-02 03:31:00,40.6,25.0,30.24,NNW,346,0.0,0.0,55,0.00,,,0.00,0,weatherlink.com 1.10,2013-02-02 08:31:00,
2013-02-02 03:47:00,39.8,26.0,30.25,NNW,346,0.0,0.0,57,0.00,,,0.00,0,weatherlink.com 1.10,2013-02-02 08:47:00,
2013-02-02 04:02:00,38.9,25.0,30.25,NNW,346,0.0,0.0,59,0.00,,,0.00,0,weatherlink.com 1.10,2013-02-02 09:02:00,
2013-02-02 04:17:00,38.3,25.0,30.25,NNW,346,0.0,0.0,60,0.00,,,0.00,0,weatherlink.com 1.10,2013-02-02 09:17:00,
2013-02-02 04:31:00,37.9,26.0,30.25,NNW,346,0.0,0.0,62,0.00,,,0.00,0,weatherlink.com 1.10,2013-02-02 09:31:00,
2013-02-02 04:49:00,37.5,26.0,30.25,NNW,346,0.0,0.0,64,0.00,,,0.00,0,weatherlink.com 1.10,2013-02-02 09:49:00,
2013-02-02 05:02:00,37.0,26.0,30.24,NNW,346,0.0,0.0,65,0.00,,,0.00,0,weatherlink.com 1.10,2013-02-02 10:02:00,
2013-02-02 05:19:00,36.6,26.0,30.24,NNW,346,0.0,0.0,65,0.00,,,0.00,0,weatherlink.com 1.10,2013-02-02 10:19:00,
2013-02-02 05:34:00,36.6,26.0,30.25,NNW,346,0.0,0.0,66,0.00,,,0.00,0,weatherlink.com 1.10,2013-02-02 10:34:00,
2013-02-02 05:48:00,36.9,26.0,30.26,NNW,346,0.0,1.0,66,0.00,,,0.00,0,weatherlink.com 1.10,2013-02-02 10:48:00,
2013-02-02 06:04:00,37.3,26.0,30.26,NNW,346,0.0,0.0,64,0.00,,,0.00,0,weatherlink.com 1.10,2013-02-02 11:04:00,
2013-02-02 06:18:00,37.5,26.0,30.26,NNW,346,0.0,0.0,63,0.00,,,0.00,0,weatherlink.com 1.10,2013-02-02 11:18:00,
2013-02-02 06:34:00,37.3,26.0,30.27,NNW,346,0.0,0.0,63,0.00,,,0.00,0,weatherlink.com 1.10,2013-02-02 11:34:00,
2013-02-02 06:47:00,37.2,26.0,30.27,NNW,346,0.0,0.0,63,0.00,,,0.00,0,weatherlink.com 1.10,2013-02-02 11:47:00,
2013-02-02 07:04:00,36.9,26.0,30.27,NNW,346,0.0,0.0,64,0.00,,,0.00,0,weatherlink.com 1.10,2013-02-02 12:04:00,
2013-02-02 07:18:00,36.5,26.0,30.27,NNW,346,0.0,0.0,65,0.00,,,0.00,0,weatherlink.com 1.10,2013-02-02 12:18:00,
2013-02-02 07:34:00,36.0,25.0,30.27,NNW,346,0.0,0.0,65,0.00,,,0.00,12,weatherlink.com 1.10,2013-02-02 12:34:00,
2013-02-02 07:49:00,35.8,25.0,30.27,NNW,346,0.0,0.0,66,0.00,,,0.00,47,weatherlink.com 1.10,2013-02-02 12:49:00,
2013-02-02 08:04:00,35.9,26.0,30.27,NNW,346,0.0,0.0,68,0.00,,,0.00,116,weatherlink.com 1.10,2013-02-02 13:04:00,
2013-02-02 08:19:00,37.5,28.0,30.28,NNW,346,0.0,0.0,69,0.00,,,0.00,162,weatherlink.com 1.10,2013-02-02 13:19:00,
2013-02-02 08:34:00,39.9,30.0,30.27,NNW,346,0.0,0.0,67,0.00,,,0.00,104,weatherlink.com 1.10,2013-02-02 13:34:00,
2013-02-02 08:49:00,41.9,31.0,30.27,NNW,346,0.0,0.0,65,0.00,,,0.00,37,weatherlink.com 1.10,2013-02-02 13:49:00,
2013-02-02 09:04:00,43.2,32.0,30.27,NNW,346,0.0,0.0,64,0.00,,,0.00,30,weatherlink.com 1.10,2013-02-02 14:04:00,
2013-02-02 09:19:00,44.1,32.0,30.27,NNW,346,0.0,0.0,63,0.00,,,0.00,32,weatherlink.com 1.10,2013-02-02 14:19:00,
2013-02-02 09:34:00,45.2,33.0,30.27,NNW,348,0.0,1.0,62,0.00,,,0.00,32,weatherlink.com 1.10,2013-02-02 14:34:00,
2013-02-02 09:49:00,46.5,34.0,30.27,North,355,0.0,1.0,61,0.00,,,0.00,250,weatherlink.com 1.10,2013-02-02 14:49:00,
2013-02-02 10:04:00,48.2,34.0,30.27,North,9,0.0,4.0,58,0.00,,,0.00,346,weatherlink.com 1.10,2013-02-02 15:04:00,
2013-02-02 10:20:00,49.8,34.0,30.27,ENE,58,0.0,1.0,56,0.00,,,0.00,35,weatherlink.com 1.10,2013-02-02 15:20:00,
2013-02-02 10:35:00,51.3,34.0,30.26,ENE,67,0.0,2.0,53,0.00,,,0.00,95,weatherlink.com 1.10,2013-02-02 15:35:00,
2013-02-02 10:51:00,52.3,34.0,30.26,ENE,67,0.0,0.0,50,0.00,,,0.00,587,weatherlink.com 1.10,2013-02-02 15:51:00,
2013-02-02 11:06:00,53.9,32.0,30.26,ENE,71,0.0,1.0,44,0.00,,,0.00,67,weatherlink.com 1.10,2013-02-02 16:06:00,
2013-02-02 11:21:00,55.1,33.0,30.25,North,360,0.0,0.0,43,0.00,,,0.00,39,weatherlink.com 1.10,2013-02-02 16:21:00,
2013-02-02 11:35:00,55.9,31.0,30.24,North,360,0.0,2.0,39,0.00,,,0.00,355,weatherlink.com 1.10,2013-02-02 16:35:00,
2013-02-02 11:50:00,56.7,36.0,30.23,West,269,0.0,2.0,47,0.00,,,0.00,77,weatherlink.com 1.10,2013-02-02 16:50:00,
2013-02-02 12:05:00,57.5,36.0,30.22,West,277,0.0,5.0,44,0.00,,,0.00,74,weatherlink.com 1.10,2013-02-02 17:05:00,
2013-02-02 12:20:00,58.4,35.0,30.21,WSW,250,0.0,5.0,42,0.00,,,0.00,696,weatherlink.com 1.10,2013-02-02 17:20:00,
2013-02-02 12:36:00,60.1,34.0,30.20,WSW,246,0.0,4.0,38,0.00,,,0.00,700,weatherlink.com 1.10,2013-02-02 17:36:00,
2013-02-02 12:50:00,62.3,34.0,30.20,WNW,282,0.0,5.0,35,0.00,,,0.00,701,weatherlink.com 1.10,2013-02-02 17:50:00,
2013-02-02 13:06:00,63.4,36.0,30.19,West,272,0.0,4.0,36,0.00,,,0.00,696,weatherlink.com 1.10,2013-02-02 18:06:00,
2013-02-02 13:22:00,64.5,36.0,30.18,WNW,282,0.0,5.0,35,0.00,,,0.00,689,weatherlink.com 1.10,2013-02-02 18:22:00,
2013-02-02 13:36:00,64.8,36.0,30.16,WNW,290,2.0,3.0,35,0.00,,,0.00,677,weatherlink.com 1.10,2013-02-02 18:36:00,
2013-02-02 13:52:00,65.2,37.0,30.15,West,264,0.0,5.0,35,0.00,,,0.00,659,weatherlink.com 1.10,2013-02-02 18:52:00,
2013-02-02 14:07:00,66.0,35.0,30.14,NW,315,4.0,7.0,32,0.00,,,0.00,642,weatherlink.com 1.10,2013-02-02 19:07:00,
2013-02-02 14:22:00,64.7,38.0,30.14,NNW,330,0.0,4.0,37,0.00,,,0.00,615,weatherlink.com 1.10,2013-02-02 19:22:00,
2013-02-02 14:39:00,65.5,36.0,30.14,WSW,252,0.0,4.0,33,0.00,,,0.00,587,weatherlink.com 1.10,2013-02-02 19:39:00,
2013-02-02 14:52:00,66.3,37.0,30.13,WNW,286,0.0,2.0,34,0.00,,,0.00,557,weatherlink.com 1.10,2013-02-02 19:52:00,
2013-02-02 15:07:00,66.8,33.0,30.12,WSW,242,0.0,4.0,28,0.00,,,0.00,524,weatherlink.com 1.10,2013-02-02 20:07:00,
2013-02-02 15:22:00,66.9,28.0,30.11,SW,225,0.0,4.0,23,0.00,,,0.00,490,weatherlink.com 1.10,2013-02-02 20:22:00,
2013-02-02 15:37:00,67.1,28.0,30.11,WSW,249,0.0,5.0,23,0.00,,,0.00,448,weatherlink.com 1.10,2013-02-02 20:37:00,
2013-02-02 15:52:00,67.6,29.0,30.10,WSW,248,0.0,3.0,24,0.00,,,0.00,404,weatherlink.com 1.10,2013-02-02 20:52:00,
2013-02-02 16:07:00,67.3,31.0,30.10,WSW,249,0.0,4.0,26,0.00,,,0.00,355,weatherlink.com 1.10,2013-02-02 21:07:00,
2013-02-02 16:22:00,67.1,31.0,30.10,WSW,250,0.0,3.0,26,0.00,,,0.00,309,weatherlink.com 1.10,2013-02-02 21:22:00,
2013-02-02 16:37:00,66.9,31.0,30.10,WSW,250,0.0,1.0,26,0.00,,,0.00,255,weatherlink.com 1.10,2013-02-02 21:37:00,
2013-02-02 16:52:00,66.6,30.0,30.10,WNW,289,0.0,1.0,25,0.00,,,0.00,206,weatherlink.com 1.10,2013-02-02 21:52:00,
2013-02-02 17:07:00,66.1,29.0,30.09,WNW,289,0.0,1.0,25,0.00,,,0.00,156,weatherlink.com 1.10,2013-02-02 22:07:00,
2013-02-02 17:22:00,65.5,30.0,30.09,WNW,289,0.0,1.0,27,0.00,,,0.00,109,weatherlink.com 1.10,2013-02-02 22:22:00,
2013-02-02 17:38:00,65.3,31.0,30.09,WNW,289,0.0,0.0,28,0.00,,,0.00,19,weatherlink.com 1.10,2013-02-02 22:38:00,
2013-02-02 17:54:00,63.9,33.0,30.09,WNW,289,0.0,0.0,31,0.00,,,0.00,11,weatherlink.com 1.10,2013-02-02 22:54:00,
2013-02-02 18:09:00,61.3,33.0,30.09,WNW,289,0.0,0.0,34,0.00,,,0.00,0,weatherlink.com 1.10,2013-02-02 23:09:00,
2013-02-02 18:23:00,59.3,35.0,30.09,WNW,289,0.0,0.0,41,0.00,,,0.00,0,weatherlink.com 1.10,2013-02-02 23:23:00,
2013-02-02 18:39:00,57.8,37.0,30.09,WNW,289,0.0,0.0,47,0.00,,,0.00,0,weatherlink.com 1.10,2013-02-02 23:39:00,
2013-02-02 19:08:00,54.2,39.0,30.09,WNW,289,0.0,0.0,56,0.00,,,0.00,0,weatherlink.com 1.10,2013-02-03 00:08:00,
2013-02-02 19:23:00,53.3,39.0,30.09,WNW,289,0.0,0.0,59,0.00,,,0.00,0,weatherlink.com 1.10,2013-02-03 00:23:00,
2013-02-02 19:38:00,52.0,39.0,30.10,WNW,289,0.0,0.0,62,0.00,,,0.00,0,weatherlink.com 1.10,2013-02-03 00:38:00,
2013-02-02 19:53:00,51.0,39.0,30.09,WNW,289,0.0,0.0,63,0.00,,,0.00,0,weatherlink.com 1.10,2013-02-03 00:53:00,
2013-02-02 20:08:00,50.1,39.0,30.09,WNW,289,0.0,0.0,65,0.00,,,0.00,0,weatherlink.com 1.10,2013-02-03 01:08:00,
2013-02-02 20:23:00,49.5,39.0,30.09,WNW,289,0.0,0.0,67,0.00,,,0.00,0,weatherlink.com 1.10,2013-02-03 01:23:00,
2013-02-02 20:38:00,48.6,38.0,30.10,WNW,289,0.0,0.0,67,0.00,,,0.00,0,weatherlink.com 1.10,2013-02-03 01:38:00,
2013-02-02 20:53:00,47.6,37.0,30.10,WNW,289,0.0,0.0,68,0.00,,,0.00,0,weatherlink.com 1.10,2013-02-03 01:53:00,
2013-02-02 21:08:00,47.0,38.0,30.10,WNW,289,0.0,0.0,70,0.00,,,0.00,0,weatherlink.com 1.10,2013-02-03 02:08:00,
2013-02-02 21:23:00,46.4,38.0,30.11,WNW,289,0.0,0.0,72,0.00,,,0.00,0,weatherlink.com 1.10,2013-02-03 02:23:00,
2013-02-02 21:38:00,45.8,38.0,30.11,WNW,289,0.0,0.0,74,0.00,,,0.00,0,weatherlink.com 1.10,2013-02-03 02:38:00,
2013-02-02 21:54:00,45.1,38.0,30.10,WNW,289,0.0,0.0,75,0.00,,,0.00,0,weatherlink.com 1.10,2013-02-03 02:54:00,
2013-02-02 22:09:00,44.6,38.0,30.11,WNW,289,0.0,0.0,77,0.00,,,0.00,0,weatherlink.com 1.10,2013-02-03 03:09:00,
2013-02-02 22:24:00,44.2,38.0,30.10,WNW,289,0.0,0.0,78,0.00,,,0.00,0,weatherlink.com 1.10,2013-02-03 03:24:00,
2013-02-02 22:39:00,43.8,38.0,30.10,WNW,289,0.0,0.0,80,0.00,,,0.00,0,weatherlink.com 1.10,2013-02-03 03:39:00,
2013-02-02 22:54:00,43.6,38.0,30.09,WNW,289,0.0,0.0,81,0.00,,,0.00,0,weatherlink.com 1.10,2013-02-03 03:54:00,
2013-02-02 23:09:00,43.3,38.0,30.09,WNW,289,0.0,0.0,82,0.00,,,0.00,0,weatherlink.com 1.10,2013-02-03 04:09:00,
2013-02-02 23:24:00,43.2,38.0,30.09,WNW,289,0.0,0.0,83,0.00,,,0.00,0,weatherlink.com 1.10,2013-02-03 04:24:00,
2013-02-02 23:39:00,42.9,38.0,30.09,WNW,289,0.0,0.0,84,0.00,,,0.00,0,weatherlink.com 1.10,2013-02-03 04:39:00,
2013-02-02 23:54:00,42.6,38.0,30.09,WNW,289,0.0,0.0,84,0.00,,,0.00,0,weatherlink.com 1.10,2013-02-03 04:54:00,